Time;durP1;ratioP1;P1;durP2;ratioP2;P2;SDS_P1;SDS_P2;PMS_P1;PMS_P2;Temp;Humidity;BMP_temperature;BMP_pressure;BME280_temperature;BME280_humidity;BME280_pressure;Samples;Min_cycle;Max_cycle;Signal;HPM_P1;HPM_P2
2022/09/29 00:02:10;;;;;;;7.53;7.03;;;;;;;;;;4982602;28;20117;-62
2022/09/29 00:04:35;;;;;;;6.40;5.90;;;;;;;;;;4979745;28;20096;-62
2022/09/29 00:07:01;;;;;;;7.07;6.57;;;;;;;;;;4979490;28;20030;-62
2022/09/29 00:09:26;;;;;;;6.47;6.05;;;;;;;;;;4981717;28;20039;-61
2022/09/29 00:11:55;;;;;;;6.80;6.30;;;;;;;;;;4977844;28;20035;-62
2022/09/29 00:14:22;;;;;;;7.18;6.68;;;;;;;;;;4978633;28;20287;-62
2022/09/29 00:16:47;;;;;;;7.32;6.72;;;;;;;;;;4976270;28;20039;-63
2022/09/29 00:19:13;;;;;;;6.45;6.03;;;;;;;;;;4979699;28;20034;-63
2022/09/29 00:21:38;;;;;;;7.10;6.60;;;;;;;;;;4979402;28;20042;-63
2022/09/29 00:24:04;;;;;;;6.80;6.30;;;;;;;;;;4977972;28;20031;-63
2022/09/29 00:26:29;;;;;;;7.40;6.80;;;;;;;;;;4976957;28;20290;-62
2022/09/29 00:28:57;;;;;;;5.90;5.50;;;;;;;;;;4976859;28;20026;-62
2022/09/29 00:31:33;;;;;;;6.75;6.25;;;;;;;;;;4978690;28;20188;-62
2022/09/29 00:33:58;;;;;;;6.70;6.20;;;;;;;;;;4976944;28;20050;-63
2022/09/29 00:36:26;;;;;;;6.32;5.82;;;;;;;;;;4979087;28;20018;-63
2022/09/29 00:38:52;;;;;;;6.13;5.63;;;;;;;;;;4977330;28;20047;-63
2022/09/29 00:41:24;;;;;;;6.40;5.90;;;;;;;;;;4978365;28;20038;-63
2022/09/29 00:44:03;;;;;;;6.93;6.30;;;;;;;;;;4979434;28;20038;-63
2022/09/29 00:46:51;;;;;;;6.70;6.13;;;;;;;;;;4980566;28;20526;-63
2022/09/29 00:49:19;;;;;;;5.82;5.43;;;;;;;;;;4979695;28;20042;-64
2022/09/29 00:51:53;;;;;;;5.80;5.40;;;;;;;;;;4979053;28;20339;-64
2022/09/29 00:54:20;;;;;;;5.75;5.35;;;;;;;;;;4978197;28;20041;-65
2022/09/29 00:56:48;;;;;;;6.30;5.90;;;;;;;;;;4979022;28;20041;-65
2022/09/29 00:59:22;;;;;;;5.93;5.43;;;;;;;;;;4980367;28;20133;-63
2022/09/29 01:01:47;;;;;;;7.10;6.40;;;;;;;;;;4978332;28;20042;-62
2022/09/29 01:04:16;;;;;;;6.90;6.18;;;;;;;;;;4981980;28;20104;-63
2022/09/29 01:06:51;;;;;;;5.78;5.35;;;;;;;;;;4980214;28;20121;-63
2022/09/29 01:09:20;;;;;;;6.10;5.70;;;;;;;;;;4980114;28;20030;-63
2022/09/29 01:11:45;;;;;;;5.70;5.30;;;;;;;;;;4978811;28;20022;-64
2022/09/29 01:14:11;;;;;;;6.65;6.15;;;;;;;;;;4979330;28;20033;-64
2022/09/29 01:16:40;;;;;;;5.95;5.55;;;;;;;;;;4977992;28;20042;-63
2022/09/29 01:19:38;;;;;;;6.15;5.75;;;;;;;;;;4979315;28;20101;-63
2022/09/29 01:22:12;;;;;;;6.07;5.68;;;;;;;;;;4968342;28;20539;-62
2022/09/29 01:24:43;;;;;;;7.43;6.82;;;;;;;;;;4977610;28;20058;-63
2022/09/29 01:27:17;;;;;;;7.07;6.57;;;;;;;;;;4978955;28;20068;-63
2022/09/29 01:29:51;;;;;;;7.32;6.82;;;;;;;;;;4975803;28;20046;-63
2022/09/29 01:32:42;;;;;;;8.55;7.95;;;;;;;;;;4981117;28;20053;-63
2022/09/29 01:35:26;;;;;;;8.88;8.27;;;;;;;;;;4978941;28;20267;-63
2022/09/29 01:37:54;;;;;;;8.85;8.13;;;;;;;;;;4975756;28;20047;-63
2022/09/29 01:40:53;;;;;;;9.15;8.55;;;;;;;;;;4984772;28;20330;-63
2022/09/29 01:43:46;;;;;;;8.07;7.57;;;;;;;;;;4977758;28;20536;-63
2022/09/29 01:46:20;;;;;;;8.93;8.32;;;;;;;;;;4975564;28;20456;-63
2022/09/29 01:48:51;;;;;;;7.68;7.18;;;;;;;;;;4977055;28;20104;-63
2022/09/29 01:51:23;;;;;;;7.68;7.18;;;;;;;;;;4977618;28;20038;-62
2022/09/29 01:53:51;;;;;;;6.72;6.22;;;;;;;;;;4976930;28;20038;-63
2022/09/29 01:56:28;;;;;;;7.47;6.97;;;;;;;;;;4977427;28;20037;-63
2022/09/29 01:58:57;;;;;;;8.30;7.75;;;;;;;;;;4975050;28;20038;-63
2022/09/29 02:01:27;;;;;;;8.43;7.88;;;;;;;;;;4978197;28;20473;-63
2022/09/29 02:04:08;;;;;;;7.68;7.18;;;;;;;;;;4976733;28;20046;-63
2022/09/29 02:06:39;;;;;;;8.88;7.93;;;;;;;;;;4976718;28;20041;-63
2022/09/29 02:09:11;;;;;;;8.05;7.45;;;;;;;;;;4976832;28;20030;-63
2022/09/29 02:11:40;;;;;;;8.30;7.80;;;;;;;;;;4978417;28;20045;-63
2022/09/29 02:14:22;;;;;;;7.90;7.30;;;;;;;;;;4977935;28;20045;-63
2022/09/29 02:16:53;;;;;;;7.60;7.10;;;;;;;;;;4978220;28;20086;-64
2022/09/29 02:19:25;;;;;;;7.15;6.65;;;;;;;;;;4976177;28;20038;-63
2022/09/29 02:21:53;;;;;;;7.75;7.20;;;;;;;;;;4976139;28;20357;-64
2022/09/29 02:24:20;;;;;;;7.25;6.75;;;;;;;;;;4980446;28;20038;-64
2022/09/29 02:26:46;;;;;;;8.00;7.50;;;;;;;;;;4979817;28;20638;-66
2022/09/29 02:29:12;;;;;;;8.05;7.53;;;;;;;;;;4981497;28;20370;-64
2022/09/29 02:31:39;;;;;;;8.73;7.45;;;;;;;;;;4981799;28;20137;-64
2022/09/29 02:34:07;;;;;;;7.22;6.72;;;;;;;;;;4981603;28;20041;-64
2022/09/29 02:36:41;;;;;;;7.60;7.10;;;;;;;;;;4987650;28;20038;-64
2022/09/29 02:39:18;;;;;;;8.02;7.43;;;;;;;;;;4977780;28;20041;-64
2022/09/29 02:42:00;;;;;;;8.43;7.82;;;;;;;;;;4980847;28;20037;-64
2022/09/29 02:44:33;;;;;;;8.48;7.75;;;;;;;;;;4980611;28;20038;-64
2022/09/29 02:47:25;;;;;;;6.80;6.30;;;;;;;;;;4980422;28;20064;-63
2022/09/29 02:50:29;;;;;;;7.03;6.53;;;;;;;;;;4981320;28;20268;-63
2022/09/29 02:53:07;;;;;;;7.40;6.90;;;;;;;;;;4982181;28;20113;-64
2022/09/29 02:55:32;;;;;;;7.00;6.50;;;;;;;;;;4981065;28;20360;-64
2022/09/29 02:58:19;;;;;;;7.47;6.97;;;;;;;;;;4978388;28;20100;-64
2022/09/29 03:00:46;;;;;;;7.07;6.57;;;;;;;;;;4978564;28;20491;-63
2022/09/29 03:03:12;;;;;;;6.97;6.47;;;;;;;;;;4982480;28;20054;-64
2022/09/29 03:05:37;;;;;;;5.90;5.50;;;;;;;;;;4979074;28;20138;-64
2022/09/29 03:08:03;;;;;;;6.78;6.28;;;;;;;;;;4987338;28;20042;-63
2022/09/29 03:10:28;;;;;;;6.40;5.97;;;;;;;;;;4979492;28;20026;-63
2022/09/29 03:12:53;;;;;;;6.38;5.95;;;;;;;;;;4981841;28;20030;-63
2022/09/29 03:15:19;;;;;;;6.18;5.78;;;;;;;;;;4978697;28;20112;-63
2022/09/29 03:17:44;;;;;;;6.20;5.70;;;;;;;;;;4979120;28;20034;-63
2022/09/29 03:20:10;;;;;;;6.40;6.00;;;;;;;;;;4979470;28;20049;-63
2022/09/29 03:22:36;;;;;;;6.53;6.03;;;;;;;;;;4978525;28;20958;-63
2022/09/29 03:25:04;;;;;;;6.22;5.82;;;;;;;;;;4977481;28;20077;-63
2022/09/29 03:27:30;;;;;;;6.40;5.97;;;;;;;;;;4982535;28;20049;-63
2022/09/29 03:29:55;;;;;;;6.47;6.00;;;;;;;;;;4975467;28;20057;-61
2022/09/29 03:32:21;;;;;;;7.15;6.65;;;;;;;;;;4981981;28;20034;-61
2022/09/29 03:34:46;;;;;;;6.75;6.25;;;;;;;;;;4978161;28;20039;-61
2022/09/29 03:37:12;;;;;;;6.68;6.18;;;;;;;;;;4979205;28;20038;-61
2022/09/29 03:39:37;;;;;;;6.30;5.80;;;;;;;;;;4979292;28;20468;-61
2022/09/29 03:42:03;;;;;;;6.38;5.97;;;;;;;;;;4982194;28;20038;-61
2022/09/29 03:44:28;;;;;;;7.10;6.60;;;;;;;;;;4979342;28;20352;-61
2022/09/29 03:46:53;;;;;;;6.57;6.07;;;;;;;;;;4978042;28;20026;-61
2022/09/29 03:49:19;;;;;;;7.97;7.38;;;;;;;;;;4980738;28;20034;-61
2022/09/29 03:51:44;;;;;;;6.57;6.07;;;;;;;;;;4975154;28;20023;-61
2022/09/29 03:54:10;;;;;;;7.53;6.82;;;;;;;;;;4978837;28;20468;-62
2022/09/29 03:56:36;;;;;;;6.07;5.68;;;;;;;;;;4975140;28;20542;-63
2022/09/29 03:59:04;;;;;;;8.20;6.85;;;;;;;;;;4992247;28;20029;-63
2022/09/29 04:01:30;;;;;;;6.45;5.95;;;;;;;;;;4977469;28;20051;-63
2022/09/29 04:03:56;;;;;;;6.80;6.30;;;;;;;;;;4978981;28;20038;-62
2022/09/29 04:06:22;;;;;;;7.88;7.28;;;;;;;;;;4979371;28;20054;-62
2022/09/29 04:08:48;;;;;;;6.85;6.35;;;;;;;;;;4975778;28;20360;-62
2022/09/29 04:11:14;;;;;;;10.48;8.20;;;;;;;;;;4978599;28;20050;-62
2022/09/29 04:13:39;;;;;;;8.15;7.55;;;;;;;;;;4978627;28;20038;-62
2022/09/29 04:16:05;;;;;;;17.58;9.55;;;;;;;;;;4979409;28;20393;-63
2022/09/29 04:18:31;;;;;;;6.63;6.13;;;;;;;;;;4975824;28;20035;-62
2022/09/29 04:20:59;;;;;;;7.75;7.15;;;;;;;;;;4981121;28;20033;-62
2022/09/29 04:23:29;;;;;;;9.15;7.72;;;;;;;;;;4980406;28;20129;-62
2022/09/29 04:25:58;;;;;;;8.43;7.55;;;;;;;;;;4980376;28;20038;-62
2022/09/29 04:28:24;;;;;;;12.00;8.18;;;;;;;;;;4980524;28;20461;-63
2022/09/29 04:30:50;;;;;;;8.30;7.70;;;;;;;;;;4980688;28;20281;-63
2022/09/29 04:33:15;;;;;;;12.45;8.10;;;;;;;;;;4981376;28;20120;-63
2022/09/29 04:35:41;;;;;;;7.95;7.35;;;;;;;;;;4980006;28;20512;-63
2022/09/29 04:38:07;;;;;;;8.93;8.23;;;;;;;;;;4977837;28;20043;-63
2022/09/29 04:40:36;;;;;;;8.65;7.95;;;;;;;;;;4981644;28;20041;-63
2022/09/29 04:43:02;;;;;;;10.52;9.73;;;;;;;;;;4978553;28;20479;-64
2022/09/29 04:45:28;;;;;;;8.27;7.68;;;;;;;;;;4978229;28;20445;-64
2022/09/29 04:47:53;;;;;;;8.02;7.50;;;;;;;;;;4978631;28;20278;-64
2022/09/29 04:50:19;;;;;;;9.00;8.10;;;;;;;;;;4980843;28;20393;-63
2022/09/29 04:52:44;;;;;;;9.15;8.18;;;;;;;;;;4981986;28;20041;-63
2022/09/29 04:55:11;;;;;;;7.97;7.38;;;;;;;;;;4978116;28;20313;-64
2022/09/29 04:57:37;;;;;;;7.30;6.80;;;;;;;;;;4977218;28;20587;-64
2022/09/29 05:00:04;;;;;;;9.27;7.47;;;;;;;;;;4981720;28;20589;-64
2022/09/29 05:02:29;;;;;;;8.63;7.93;;;;;;;;;;4979426;28;20457;-64
2022/09/29 05:04:55;;;;;;;8.38;7.57;;;;;;;;;;4981354;28;20046;-64
2022/09/29 05:07:20;;;;;;;8.88;8.18;;;;;;;;;;4977396;28;20077;-65
2022/09/29 05:09:45;;;;;;;7.97;7.40;;;;;;;;;;4981477;28;20480;-64
2022/09/29 05:12:11;;;;;;;7.40;6.80;;;;;;;;;;4979297;28;20498;-64
2022/09/29 05:14:36;;;;;;;9.32;8.63;;;;;;;;;;4978143;28;20038;-64
2022/09/29 05:17:02;;;;;;;9.10;8.40;;;;;;;;;;4981693;28;20058;-64
2022/09/29 05:19:28;;;;;;;10.38;9.30;;;;;;;;;;4985383;28;20453;-64
2022/09/29 05:21:53;;;;;;;8.30;7.70;;;;;;;;;;4987641;28;20476;-64
2022/09/29 05:24:18;;;;;;;10.95;9.90;;;;;;;;;;4985212;28;20456;-64
2022/09/29 05:26:44;;;;;;;10.10;9.30;;;;;;;;;;4980734;28;20465;-64
2022/09/29 05:29:09;;;;;;;10.50;9.63;;;;;;;;;;4983072;28;20034;-64
2022/09/29 05:31:34;;;;;;;10.05;9.02;;;;;;;;;;4985489;28;20030;-65
2022/09/29 05:34:00;;;;;;;8.93;8.13;;;;;;;;;;4986614;28;20453;-64
2022/09/29 05:36:25;;;;;;;8.02;7.43;;;;;;;;;;4984213;28;20026;-64
2022/09/29 05:38:51;;;;;;;8.30;7.70;;;;;;;;;;4982303;28;20034;-64
2022/09/29 05:41:22;;;;;;;8.20;7.60;;;;;;;;;;4984330;28;20052;-63
2022/09/29 05:43:49;;;;;;;9.60;8.82;;;;;;;;;;4983275;28;20492;-64
2022/09/29 05:46:15;;;;;;;8.27;7.50;;;;;;;;;;4980300;28;20038;-65
2022/09/29 05:48:42;;;;;;;9.80;8.88;;;;;;;;;;4982894;28;20018;-64
2022/09/29 05:51:11;;;;;;;9.00;8.20;;;;;;;;;;4980204;28;20026;-65
2022/09/29 05:53:37;;;;;;;9.77;8.93;;;;;;;;;;4981797;28;20623;-64
2022/09/29 05:56:07;;;;;;;8.40;7.80;;;;;;;;;;4979249;28;20046;-65
2022/09/29 05:58:33;;;;;;;8.30;7.65;;;;;;;;;;4980425;28;20046;-64
2022/09/29 06:00:58;;;;;;;8.80;8.20;;;;;;;;;;4982391;28;20384;-64
2022/09/29 06:03:24;;;;;;;9.73;8.77;;;;;;;;;;4979086;28;20054;-64
2022/09/29 06:05:49;;;;;;;9.57;8.88;;;;;;;;;;4978352;28;20138;-64
2022/09/29 06:08:15;;;;;;;8.35;7.75;;;;;;;;;;4979677;28;20107;-64
2022/09/29 06:10:40;;;;;;;8.43;7.82;;;;;;;;;;4982711;28;20023;-64
2022/09/29 06:13:06;;;;;;;8.70;7.85;;;;;;;;;;4983079;28;20808;-64
2022/09/29 06:15:31;;;;;;;8.85;8.23;;;;;;;;;;4980098;28;20279;-64
2022/09/29 06:17:58;;;;;;;8.50;7.90;;;;;;;;;;4979621;28;20039;-64
2022/09/29 06:20:23;;;;;;;8.07;7.38;;;;;;;;;;4982671;28;20034;-64
2022/09/29 06:22:52;;;;;;;8.02;7.43;;;;;;;;;;4982261;28;20506;-62
2022/09/29 06:25:18;;;;;;;9.15;8.35;;;;;;;;;;4978125;28;20030;-61
2022/09/29 06:27:43;;;;;;;7.25;6.65;;;;;;;;;;4981076;28;20029;-62
2022/09/29 06:30:09;;;;;;;12.57;7.65;;;;;;;;;;4978882;28;20322;-64
2022/09/29 06:32:34;;;;;;;9.00;8.30;;;;;;;;;;4981953;28;20046;-65
2022/09/29 06:37:45;;;;;;;9.50;8.77;;;;;;;;;;4976915;28;20535;-65
2022/09/29 06:40:11;;;;;;;9.65;8.93;;;;;;;;;;4980623;28;20046;-65
2022/09/29 06:42:37;;;;;;;10.45;9.75;;;;;;;;;;4980585;28;20125;-65
2022/09/29 06:45:03;;;;;;;11.25;10.38;;;;;;;;;;4978088;28;20160;-65
2022/09/29 06:47:28;;;;;;;10.27;9.57;;;;;;;;;;4981752;28;20031;-65
2022/09/29 06:49:54;;;;;;;11.23;10.15;;;;;;;;;;4984800;28;20125;-65
2022/09/29 06:52:19;;;;;;;10.50;9.63;;;;;;;;;;4979747;28;20051;-65
2022/09/29 06:54:45;;;;;;;10.45;9.73;;;;;;;;;;4979744;28;20022;-65
2022/09/29 06:57:10;;;;;;;11.00;10.20;;;;;;;;;;4980627;28;20037;-65
2022/09/29 06:59:36;;;;;;;10.68;9.88;;;;;;;;;;4977349;28;20113;-65
2022/09/29 07:02:02;;;;;;;10.73;9.88;;;;;;;;;;4981217;28;20049;-65
2022/09/29 07:04:28;;;;;;;11.23;10.43;;;;;;;;;;4977694;28;20031;-64
2022/09/29 07:06:53;;;;;;;11.95;10.90;;;;;;;;;;4978111;28;20043;-65
2022/09/29 07:09:19;;;;;;;11.45;10.52;;;;;;;;;;4980882;28;20026;-65
2022/09/29 07:11:47;;;;;;;10.45;9.75;;;;;;;;;;4981159;28;20042;-64
2022/09/29 07:14:14;;;;;;;11.15;10.35;;;;;;;;;;4981173;28;20401;-65
2022/09/29 07:16:39;;;;;;;11.00;10.30;;;;;;;;;;4981003;28;20041;-65
2022/09/29 07:19:04;;;;;;;11.63;10.73;;;;;;;;;;4983924;28;20023;-65
2022/09/29 07:21:30;;;;;;;11.82;10.93;;;;;;;;;;4983865;28;20032;-65
2022/09/29 07:23:55;;;;;;;11.57;10.77;;;;;;;;;;4984511;28;20038;-65
2022/09/29 07:26:21;;;;;;;11.73;10.80;;;;;;;;;;4986602;28;20184;-65
2022/09/29 07:28:46;;;;;;;13.13;11.30;;;;;;;;;;4983774;28;20026;-63
2022/09/29 07:31:18;;;;;;;13.02;11.93;;;;;;;;;;4981488;28;20380;-63
2022/09/29 07:33:44;;;;;;;11.25;10.55;;;;;;;;;;4987683;28;20519;-66
2022/09/29 07:36:11;;;;;;;11.10;10.38;;;;;;;;;;4982661;28;20645;-63
2022/09/29 07:38:37;;;;;;;12.10;11.30;;;;;;;;;;4980782;28;20027;-65
2022/09/29 07:41:07;;;;;;;10.13;9.43;;;;;;;;;;4982472;28;20038;-64
2022/09/29 07:43:33;;;;;;;11.35;10.48;;;;;;;;;;5000878;28;20053;-64
2022/09/29 07:46:01;;;;;;;11.25;10.40;;;;;;;;;;4982295;28;20500;-65
2022/09/29 07:48:27;;;;;;;11.88;10.93;;;;;;;;;;4982667;28;20034;-64
2022/09/29 07:51:25;;;;;;;11.48;10.68;;;;;;;;;;4981384;28;20038;-64
2022/09/29 07:53:51;;;;;;;11.65;10.85;;;;;;;;;;4982126;28;20129;-64
2022/09/29 07:56:19;;;;;;;12.73;11.50;;;;;;;;;;4978514;28;20101;-64
2022/09/29 07:58:46;;;;;;;10.02;9.25;;;;;;;;;;4980469;28;20542;-64
2022/09/29 08:01:14;;;;;;;10.77;9.98;;;;;;;;;;4996185;28;20089;-64
2022/09/29 08:03:42;;;;;;;10.27;9.57;;;;;;;;;;4983353;28;20043;-64
2022/09/29 08:06:09;;;;;;;14.05;12.98;;;;;;;;;;4984069;28;20730;-64
2022/09/29 08:08:36;;;;;;;12.32;11.52;;;;;;;;;;4983482;28;20038;-63
2022/09/29 08:11:13;;;;;;;12.48;11.52;;;;;;;;;;4980803;28;20065;-64
2022/09/29 08:13:39;;;;;;;11.57;10.75;;;;;;;;;;4983733;28;20041;-64
2022/09/29 08:16:09;;;;;;;12.23;11.32;;;;;;;;;;4981050;28;20337;-64
2022/09/29 08:18:35;;;;;;;14.80;13.70;;;;;;;;;;4982854;28;20063;-64
2022/09/29 08:21:01;;;;;;;12.75;11.75;;;;;;;;;;4979449;28;20137;-64
2022/09/29 08:23:26;;;;;;;14.70;13.40;;;;;;;;;;4983596;28;20119;-64
2022/09/29 08:26:09;;;;;;;14.93;13.93;;;;;;;;;;4979658;28;20033;-64
2022/09/29 08:28:36;;;;;;;15.95;14.85;;;;;;;;;;4979469;28;20460;-64
2022/09/29 08:31:06;;;;;;;14.70;13.60;;;;;;;;;;4983029;28;20031;-65
2022/09/29 08:33:33;;;;;;;11.98;11.25;;;;;;;;;;4979823;28;20031;-64
2022/09/29 08:36:00;;;;;;;11.30;10.50;;;;;;;;;;4981228;28;20364;-64
2022/09/29 08:38:26;;;;;;;10.95;10.15;;;;;;;;;;4981483;28;20046;-64
2022/09/29 08:40:53;;;;;;;13.60;12.60;;;;;;;;;;4982146;28;20038;-64
2022/09/29 08:43:26;;;;;;;12.40;11.60;;;;;;;;;;4982979;28;20113;-64
2022/09/29 08:46:05;;;;;;;13.32;11.90;;;;;;;;;;4981819;28;20157;-64
2022/09/29 08:48:35;;;;;;;12.07;11.18;;;;;;;;;;4996545;28;20348;-64
2022/09/29 08:51:11;;;;;;;14.23;13.13;;;;;;;;;;4979551;28;20173;-64
2022/09/29 08:53:44;;;;;;;12.80;11.90;;;;;;;;;;4977475;28;20042;-64
2022/09/29 08:56:15;;;;;;;12.95;11.98;;;;;;;;;;4981046;28;20186;-64
2022/09/29 08:58:40;;;;;;;11.20;10.32;;;;;;;;;;4977754;28;20042;-64
2022/09/29 09:01:08;;;;;;;13.98;11.55;;;;;;;;;;4981290;28;20034;-64
2022/09/29 09:03:51;;;;;;;11.48;10.65;;;;;;;;;;4980637;28;20046;-64
2022/09/29 09:06:20;;;;;;;12.15;11.35;;;;;;;;;;4981385;28;20043;-64
2022/09/29 09:09:13;;;;;;;11.23;10.35;;;;;;;;;;4987138;28;20125;-64
2022/09/29 09:12:06;;;;;;;10.43;9.73;;;;;;;;;;4979520;28;20038;-64
2022/09/29 09:14:56;;;;;;;11.27;10.43;;;;;;;;;;4980891;28;20372;-65
2022/09/29 09:17:26;;;;;;;11.48;10.52;;;;;;;;;;4982924;28;20026;-64
2022/09/29 09:20:07;;;;;;;11.60;10.77;;;;;;;;;;4976862;28;20527;-64
2022/09/29 09:22:46;;;;;;;13.05;12.05;;;;;;;;;;4983309;28;20042;-65
2022/09/29 09:25:34;;;;;;;14.63;13.57;;;;;;;;;;4981446;28;20111;-64
2022/09/29 09:28:18;;;;;;;14.45;13.48;;;;;;;;;;4983751;28;20038;-63
2022/09/29 09:30:48;;;;;;;11.07;10.35;;;;;;;;;;4980532;28;20045;-64
2022/09/29 09:33:22;;;;;;;12.48;11.57;;;;;;;;;;4983186;28;20035;-63
2022/09/29 09:36:07;;;;;;;11.18;10.43;;;;;;;;;;4981629;28;20585;-62
2022/09/29 09:38:53;;;;;;;9.90;9.20;;;;;;;;;;4984439;28;20042;-63
2022/09/29 09:41:23;;;;;;;10.75;9.85;;;;;;;;;;4981104;28;20058;-63
2022/09/29 09:43:57;;;;;;;9.05;8.40;;;;;;;;;;4981384;28;20057;-63
2022/09/29 09:46:29;;;;;;;9.57;8.77;;;;;;;;;;4978102;28;20096;-63
2022/09/29 09:52:44;;;;;;;8.20;7.50;;;;;;;;;;4978551;28;20046;-65
2022/09/29 09:55:16;;;;;;;9.38;8.40;;;;;;;;;;4979945;28;20096;-65
2022/09/29 09:58:06;;;;;;;8.50;7.80;;;;;;;;;;4979797;28;20093;-65
2022/09/29 10:00:34;;;;;;;9.77;8.83;;;;;;;;;;4983186;28;20030;-65
2022/09/29 10:03:06;;;;;;;10.93;8.52;;;;;;;;;;4980568;28;20296;-65
2022/09/29 10:05:41;;;;;;;9.23;8.35;;;;;;;;;;4983122;28;20036;-66
2022/09/29 10:08:42;;;;;;;9.45;8.63;;;;;;;;;;4983184;28;20569;-66
2022/09/29 10:11:14;;;;;;;8.60;7.90;;;;;;;;;;5003283;28;20605;-65
2022/09/29 10:13:40;;;;;;;9.20;8.40;;;;;;;;;;4986010;28;20121;-63
2022/09/29 10:16:15;;;;;;;8.38;7.68;;;;;;;;;;4982791;28;20039;-62
2022/09/29 10:18:51;;;;;;;7.88;7.28;;;;;;;;;;4985219;28;20027;-64
2022/09/29 10:21:22;;;;;;;8.52;7.70;;;;;;;;;;4984748;28;20189;-64
2022/09/29 10:23:53;;;;;;;9.23;8.52;;;;;;;;;;4988737;28;20771;-63
2022/09/29 10:26:24;;;;;;;;;;;;;;;;;;4984033;28;20035;-66
2022/09/29 10:28:57;;;;;;;9.10;8.20;;;;;;;;;;4982001;28;19929;-65
2022/09/29 10:31:33;;;;;;;8.02;7.30;;;;;;;;;;4982252;28;20038;-65
2022/09/29 10:34:14;;;;;;;8.18;7.57;;;;;;;;;;4977430;28;20070;-65
2022/09/29 10:37:06;;;;;;;;;;;;;;;;;;4980151;28;20525;-63
2022/09/29 10:39:46;;;;;;;7.63;7.10;;;;;;;;;;4964267;28;19950;-65
2022/09/29 10:42:20;;;;;;;8.95;8.05;;;;;;;;;;4986339;28;20129;-64
2022/09/29 10:44:59;;;;;;;7.90;7.30;;;;;;;;;;4980837;28;20026;-65
2022/09/29 10:47:25;;;;;;;10.45;9.65;;;;;;;;;;4988171;28;20027;-66
2022/09/29 10:50:11;;;;;;;9.05;8.38;;;;;;;;;;4984673;28;20592;-66
2022/09/29 10:52:40;;;;;;;10.05;9.23;;;;;;;;;;4984873;28;20038;-63
2022/09/29 10:55:15;;;;;;;9.07;8.40;;;;;;;;;;4984665;28;20034;-64
2022/09/29 10:57:43;;;;;;;9.88;8.98;;;;;;;;;;4985897;28;20060;-65
2022/09/29 11:00:24;;;;;;;8.82;8.23;;;;;;;;;;4986504;28;20096;-63
2022/09/29 11:02:51;;;;;;;9.45;8.48;;;;;;;;;;4985890;28;20038;-64
2022/09/29 11:05:20;;;;;;;10.65;9.68;;;;;;;;;;4984505;28;20034;-64
2022/09/29 11:07:47;;;;;;;9.65;8.75;;;;;;;;;;4985219;28;20361;-62
2022/09/29 11:10:29;;;;;;;9.85;9.15;;;;;;;;;;4987817;28;20131;-62
2022/09/29 11:12:57;;;;;;;9.98;9.07;;;;;;;;;;4984213;28;20034;-63
2022/09/29 11:15:39;;;;;;;9.77;9.07;;;;;;;;;;4984227;28;20046;-63
2022/09/29 11:18:20;;;;;;;12.55;10.27;;;;;;;;;;4989373;28;20046;-62
2022/09/29 11:20:52;;;;;;;7.85;7.25;;;;;;;;;;4983161;28;20045;-63
2022/09/29 11:23:25;;;;;;;8.40;7.80;;;;;;;;;;4984751;28;20137;-63
2022/09/29 11:26:14;;;;;;;8.75;8.10;;;;;;;;;;4990604;28;20445;-62
2022/09/29 11:29:07;;;;;;;9.70;8.80;;;;;;;;;;4980493;28;20078;-63
2022/09/29 11:31:55;;;;;;;9.32;8.25;;;;;;;;;;4984902;28;20108;-65
2022/09/29 11:34:49;;;;;;;8.90;8.20;;;;;;;;;;4978678;28;20053;-65
2022/09/29 11:37:27;;;;;;;8.07;7.47;;;;;;;;;;4980027;28;20045;-65
2022/09/29 11:40:13;;;;;;;10.35;9.45;;;;;;;;;;4982846;28;20539;-65
2022/09/29 11:43:03;;;;;;;9.02;8.32;;;;;;;;;;4982160;28;20408;-65
2022/09/29 11:45:40;;;;;;;9.07;8.27;;;;;;;;;;4981254;28;20113;-63
2022/09/29 11:48:35;;;;;;;9.27;8.57;;;;;;;;;;4980460;28;20022;-65
2022/09/29 11:51:39;;;;;;;9.82;9.00;;;;;;;;;;4982548;28;20042;-64
2022/09/29 11:54:32;;;;;;;8.80;8.05;;;;;;;;;;4979997;28;20046;-63
2022/09/29 11:57:13;;;;;;;9.18;8.50;;;;;;;;;;4979238;28;20042;-64
2022/09/29 11:59:54;;;;;;;9.43;8.63;;;;;;;;;;4978991;28;20034;-63
2022/09/29 12:02:45;;;;;;;;;;;;;;;;;;4980296;28;20038;-62
2022/09/29 12:05:16;;;;;;;7.38;6.88;;;;;;;;;;4980596;28;19917;-61
2022/09/29 12:08:00;;;;;;;9.25;8.55;;;;;;;;;;4980204;28;20034;-61
2022/09/29 12:11:13;;;;;;;9.48;8.75;;;;;;;;;;4981150;28;20100;-62
2022/09/29 12:13:52;;;;;;;8.10;7.35;;;;;;;;;;4975215;28;20038;-62
2022/09/29 12:16:20;;;;;;;9.82;9.02;;;;;;;;;;4981762;28;20377;-63
2022/09/29 12:19:00;;;;;;;8.40;7.80;;;;;;;;;;4980123;28;20372;-63
2022/09/29 12:21:41;;;;;;;8.30;7.60;;;;;;;;;;4978201;28;20364;-64
2022/09/29 12:24:14;;;;;;;;;;;;;;;;;;4980919;28;20050;-62
2022/09/29 12:26:40;;;;;;;10.73;8.90;;;;;;;;;;4980185;28;19913;-62
2022/09/29 12:29:37;;;;;;;8.52;7.82;;;;;;;;;;4981117;28;20022;-62
2022/09/29 12:32:22;;;;;;;7.03;6.53;;;;;;;;;;4979324;28;20042;-66
2022/09/29 12:34:52;;;;;;;8.57;7.88;;;;;;;;;;4982664;28;20488;-66
2022/09/29 12:37:40;;;;;;;8.85;8.15;;;;;;;;;;4982903;28;20717;-65
2022/09/29 12:40:22;;;;;;;7.32;6.78;;;;;;;;;;4982958;28;20035;-65
2022/09/29 12:43:02;;;;;;;8.13;7.53;;;;;;;;;;4980436;28;20091;-66
2022/09/29 12:45:40;;;;;;;7.13;6.63;;;;;;;;;;4981597;28;20030;-65
2022/09/29 12:48:37;;;;;;;8.48;7.88;;;;;;;;;;4979746;28;20536;-65
2022/09/29 12:51:32;;;;;;;8.45;7.75;;;;;;;;;;4995280;28;20318;-65
2022/09/29 12:54:16;;;;;;;8.02;7.22;;;;;;;;;;4978938;28;20058;-65
2022/09/29 12:56:47;;;;;;;8.98;8.18;;;;;;;;;;4981249;28;20378;-65
2022/09/29 12:59:12;;;;;;;;;;;;;;;;;;4979599;28;20035;-65
2022/09/29 13:01:39;;;;;;;10.30;8.00;;;;;;;;;;4981146;28;20379;-66
2022/09/29 13:04:28;;;;;;;8.30;7.70;;;;;;;;;;4984956;28;20029;-65
2022/09/29 13:06:56;;;;;;;8.88;8.27;;;;;;;;;;4979869;28;20046;-65
2022/09/29 13:09:45;;;;;;;7.90;7.30;;;;;;;;;;4980091;28;20026;-65
2022/09/29 13:12:55;;;;;;;8.40;7.72;;;;;;;;;;4981189;28;20193;-65
2022/09/29 13:15:25;;;;;;;8.83;8.13;;;;;;;;;;4979036;28;20131;-65
2022/09/29 13:17:59;;;;;;;7.82;7.22;;;;;;;;;;4979946;28;20298;-65
2022/09/29 13:20:27;;;;;;;8.10;7.50;;;;;;;;;;4979945;28;20488;-65
2022/09/29 13:23:02;;;;;;;9.93;9.23;;;;;;;;;;4981347;28;20389;-65
2022/09/29 13:25:59;;;;;;;7.85;7.25;;;;;;;;;;4981395;28;20508;-65
2022/09/29 13:28:32;;;;;;;10.32;9.63;;;;;;;;;;4980944;28;20018;-65
2022/09/29 13:31:04;;;;;;;9.63;8.82;;;;;;;;;;4981263;28;20045;-65
2022/09/29 13:33:31;;;;;;;8.95;8.25;;;;;;;;;;4977946;28;20034;-64
2022/09/29 13:35:57;;;;;;;8.65;8.05;;;;;;;;;;4980972;28;20041;-64
2022/09/29 13:38:28;;;;;;;9.13;8.52;;;;;;;;;;4980483;28;21613;-64
2022/09/29 13:41:15;;;;;;;8.80;8.05;;;;;;;;;;4994256;28;20054;-64
2022/09/29 13:44:01;;;;;;;7.68;7.18;;;;;;;;;;4982494;28;20034;-63
2022/09/29 13:46:29;;;;;;;9.80;9.20;;;;;;;;;;4982099;28;20041;-65
2022/09/29 13:49:13;;;;;;;10.02;9.43;;;;;;;;;;4980332;28;20034;-64
2022/09/29 13:51:54;;;;;;;16.13;15.20;;;;;;;;;;4979127;28;20038;-65
2022/09/29 13:54:29;;;;;;;15.50;14.60;;;;;;;;;;4980261;28;20035;-64
2022/09/29 13:57:13;;;;;;;12.57;11.82;;;;;;;;;;4980788;28;20389;-64
2022/09/29 14:00:01;;;;;;;12.93;12.13;;;;;;;;;;4978151;28;20031;-65
2022/09/29 14:02:58;;;;;;;18.02;17.02;;;;;;;;;;4974900;28;20121;-65
2022/09/29 14:05:24;;;;;;;18.77;17.77;;;;;;;;;;4981256;28;20092;-65
2022/09/29 14:08:07;;;;;;;19.60;18.40;;;;;;;;;;4979615;28;20046;-65
2022/09/29 14:10:36;;;;;;;16.52;15.63;;;;;;;;;;4971417;28;20464;-64
2022/09/29 14:13:06;;;;;;;19.48;18.42;;;;;;;;;;4978717;28;20130;-63
2022/09/29 14:15:35;;;;;;;17.80;16.80;;;;;;;;;;4978804;28;20360;-62
2022/09/29 14:18:06;;;;;;;21.40;20.10;;;;;;;;;;4984334;28;20034;-63
2022/09/29 14:20:33;;;;;;;15.30;14.40;;;;;;;;;;4983825;28;20030;-62
2022/09/29 14:23:01;;;;;;;16.77;15.60;;;;;;;;;;4985002;28;20039;-62
2022/09/29 14:25:31;;;;;;;20.02;18.80;;;;;;;;;;4982891;28;20039;-62
2022/09/29 14:27:57;;;;;;;16.87;15.97;;;;;;;;;;4997115;28;20125;-62
2022/09/29 14:30:34;;;;;;;18.10;17.10;;;;;;;;;;4983504;28;20042;-62
2022/09/29 14:33:15;;;;;;;19.35;18.25;;;;;;;;;;4982920;28;20073;-62
2022/09/29 14:36:03;;;;;;;17.08;16.08;;;;;;;;;;4990080;28;20084;-63
2022/09/29 14:38:50;;;;;;;17.67;16.67;;;;;;;;;;4985301;28;20104;-62
2022/09/29 14:41:22;;;;;;;18.83;17.73;;;;;;;;;;4983338;28;20034;-62
2022/09/29 14:43:56;;;;;;;19.80;18.70;;;;;;;;;;4989894;28;20761;-62
2022/09/29 14:52:49;;;;;;;;;;;;;;;;;;4983317;28;20061;-62
2022/09/29 14:55:30;;;;;;;14.07;13.23;;;;;;;;;;4984455;28;19910;-62
2022/09/29 14:58:08;;;;;;;14.40;13.38;;;;;;;;;;4981429;28;20042;-61
2022/09/29 15:00:44;;;;;;;17.33;16.35;;;;;;;;;;4986718;28;20030;-62
2022/09/29 15:03:17;;;;;;;17.77;16.77;;;;;;;;;;4982106;28;20030;-62
2022/09/29 15:05:42;;;;;;;16.45;15.55;;;;;;;;;;4995772;28;20528;-62
2022/09/29 15:08:26;;;;;;;18.30;17.30;;;;;;;;;;4982881;28;20062;-63
2022/09/29 15:10:51;;;;;;;18.20;17.20;;;;;;;;;;4980225;28;20042;-62
2022/09/29 15:13:29;;;;;;;17.92;16.92;;;;;;;;;;4984993;28;20034;-63
2022/09/29 15:16:02;;;;;;;17.38;16.38;;;;;;;;;;4980480;28;20031;-62
2022/09/29 15:18:45;;;;;;;17.90;16.90;;;;;;;;;;4979034;28;20026;-62
2022/09/29 15:21:37;;;;;;;13.27;12.48;;;;;;;;;;4984276;28;20041;-63